createdAt,value
2018-05-07T00:00:16.346Z,48.42
2018-05-07T00:02:44.741Z,48.70
2018-05-07T00:05:16.392Z,49.09
2018-05-07T00:07:44.756Z,49.04
2018-05-07T00:10:17.682Z,49.05
2018-05-07T00:12:46.085Z,49.26
2018-05-07T00:15:16.207Z,49.17
2018-05-07T00:17:44.586Z,49.23
2018-05-07T00:20:15.280Z,49.45
2018-05-07T00:22:43.660Z,49.50
2018-05-07T00:25:17.270Z,49.72
2018-05-07T00:27:45.654Z,49.68
2018-05-07T00:30:16.929Z,49.87
2018-05-07T00:32:45.173Z,49.90
2018-05-07T00:35:14.172Z,50.33
2018-05-07T00:37:42.540Z,50.63
2018-05-07T00:40:17.625Z,51.05
2018-05-07T00:42:46.017Z,51.08
2018-05-07T00:45:14.396Z,51.16
2018-05-07T00:47:43.301Z,51.15
2018-05-07T00:50:16.900Z,51.27
2018-05-07T00:52:45.313Z,51.37
2018-05-07T00:55:22.240Z,51.67
2018-05-07T00:57:50.620Z,51.71
2018-05-07T01:00:19.039Z,52.01
2018-05-07T01:02:47.417Z,52.41
2018-05-07T01:05:16.235Z,52.66
2018-05-07T01:07:44.621Z,52.84
2018-05-07T01:10:18.107Z,52.75
2018-05-07T01:12:46.512Z,52.80
2018-05-07T01:15:15.062Z,53.01
2018-05-07T01:17:43.437Z,52.95
2018-05-07T01:20:13.133Z,53.09
2018-05-07T01:22:41.516Z,53.09
2018-05-07T01:25:17.960Z,53.37
2018-05-07T01:27:46.354Z,53.33
2018-05-07T01:30:16.677Z,53.49
2018-05-07T01:32:45.085Z,53.50
2018-05-07T01:35:16.125Z,53.55
2018-05-07T01:37:44.520Z,53.57
2018-05-07T01:40:12.913Z,53.54
2018-05-07T01:42:41.058Z,53.78
2018-05-07T01:45:12.945Z,53.84
2018-05-07T01:47:41.319Z,53.85
2018-05-07T01:50:16.834Z,54.02
2018-05-07T01:52:45.241Z,54.03
2018-05-07T01:55:13.619Z,53.96
2018-05-07T01:57:41.992Z,54.06
2018-05-07T02:00:10.977Z,53.97
2018-05-07T02:02:39.349Z,54.19
2018-05-07T02:07:42.070Z,54.43
2018-05-07T02:10:16.509Z,54.38
2018-05-07T02:12:44.900Z,54.50
2018-05-07T02:15:17.422Z,54.65
2018-05-07T02:17:45.833Z,54.70
2018-05-07T02:20:16.312Z,54.79
2018-05-07T02:22:44.677Z,54.90
2018-05-07T02:25:15.406Z,54.92
2018-05-07T02:27:44.319Z,55.17
2018-05-07T02:30:17.490Z,55.38
2018-05-07T02:32:45.856Z,55.57
2018-05-07T02:35:17.395Z,55.68
2018-05-07T02:37:45.765Z,55.76
2018-05-07T02:40:16.385Z,55.97
2018-05-07T02:42:45.126Z,56.06
2018-05-07T02:45:13.530Z,56.17
2018-05-07T02:47:41.928Z,56.21
2018-05-07T02:50:16.331Z,56.32
2018-05-07T02:52:44.898Z,56.53
2018-05-07T02:55:14.953Z,56.59
2018-05-07T02:57:43.328Z,56.69
2018-05-07T03:00:17.261Z,56.81
2018-05-07T03:02:46.055Z,56.75
2018-05-07T03:05:15.043Z,57.06
2018-05-07T03:07:43.867Z,57.10
2018-05-07T03:12:47.056Z,57.22
2018-05-07T03:15:16.169Z,57.22
2018-05-07T03:17:44.566Z,57.20
2018-05-07T03:20:13.053Z,57.12
2018-05-07T03:22:41.454Z,57.24
2018-05-07T03:25:12.120Z,57.18
2018-05-07T03:27:40.645Z,57.29
2018-05-07T03:30:17.214Z,57.34
2018-05-07T03:32:45.593Z,57.46
2018-05-07T03:35:14.716Z,57.55
2018-05-07T03:37:43.079Z,57.82
2018-05-07T03:40:18.165Z,57.71
2018-05-07T03:42:46.538Z,57.78
2018-05-07T03:45:14.929Z,57.97
2018-05-07T03:47:43.301Z,57.91
2018-05-07T03:50:13.108Z,57.83
2018-05-07T03:52:41.517Z,57.82
2018-05-07T03:55:16.876Z,57.96
2018-05-07T03:57:45.252Z,57.93
2018-05-07T04:00:14.503Z,57.79
2018-05-07T04:02:42.909Z,58.03
2018-05-07T04:05:16.633Z,58.12
2018-05-07T04:07:45.020Z,58.08
2018-05-07T04:10:17.862Z,57.74
2018-05-07T04:12:45.998Z,57.73
2018-05-07T04:15:17.505Z,57.72
2018-05-07T04:17:57.163Z,57.40
2018-05-07T04:20:36.701Z,57.41
2018-05-07T04:26:10.220Z,56.93
2018-05-07T04:28:38.608Z,56.41
2018-05-07T04:31:06.753Z,56.40
2018-05-07T04:33:35.128Z,56.10
2018-05-07T04:36:03.287Z,56.02
2018-05-07T04:38:32.533Z,55.25
2018-05-07T04:41:00.922Z,55.21
2018-05-07T04:43:30.248Z,55.37
2018-05-07T04:45:58.633Z,54.96
2018-05-07T04:48:27.058Z,54.86
2018-05-07T04:50:55.445Z,55.18
2018-05-07T04:53:23.820Z,54.82
2018-05-07T04:55:52.290Z,54.94
2018-05-07T04:58:20.703Z,54.60
2018-05-07T05:00:49.106Z,54.25
2018-05-07T05:03:17.504Z,54.07
2018-05-07T05:05:45.893Z,53.82
2018-05-07T05:08:14.288Z,53.69
2018-05-07T05:10:42.669Z,53.39
2018-05-07T05:13:11.048Z,53.58
2018-05-07T05:15:39.541Z,53.41
2018-05-07T05:18:07.969Z,53.41
2018-05-07T05:20:36.388Z,53.55
2018-05-07T05:23:04.770Z,53.13
2018-05-07T05:25:32.962Z,53.72
2018-05-07T05:28:01.355Z,53.10
2018-05-07T05:30:29.729Z,53.53
2018-05-07T05:32:58.110Z,53.62
2018-05-07T05:35:26.487Z,53.22
2018-05-07T05:37:54.865Z,53.50
2018-05-07T05:40:23.239Z,53.34
2018-05-07T05:42:51.613Z,52.97
2018-05-07T05:45:19.989Z,52.25
2018-05-07T05:47:48.366Z,52.75
2018-05-07T05:50:16.670Z,52.35
2018-05-07T05:52:45.224Z,50.91
2018-05-07T05:55:13.619Z,50.89
2018-05-07T05:57:42.006Z,50.58
2018-05-07T06:00:12.756Z,50.71
2018-05-07T06:02:41.149Z,50.74
2018-05-07T06:05:13.079Z,51.00
2018-05-07T06:07:41.463Z,50.99
2018-05-07T06:10:11.845Z,50.80
2018-05-07T06:12:40.028Z,50.71
2018-05-07T06:15:09.455Z,51.16
2018-05-07T06:17:37.853Z,50.72
2018-05-07T06:20:09.037Z,50.90
2018-05-07T06:22:37.409Z,50.73
2018-05-07T06:25:08.211Z,50.19
2018-05-07T06:27:37.072Z,50.46
2018-05-07T06:30:06.841Z,49.66
2018-05-07T06:32:35.222Z,49.48
2018-05-07T06:35:03.679Z,49.78
2018-05-07T06:37:32.253Z,49.30
2018-05-07T06:40:00.820Z,48.91
2018-05-07T06:42:30.190Z,48.16
2018-05-07T06:44:59.209Z,49.14
2018-05-07T06:47:27.773Z,49.11
2018-05-07T06:49:56.132Z,48.42
2018-05-07T06:52:24.522Z,48.85
2018-05-07T06:54:52.887Z,49.19
2018-05-07T06:57:21.278Z,48.91
2018-05-07T06:59:50.290Z,48.61
2018-05-07T07:02:18.709Z,48.34
2018-05-07T07:04:47.584Z,48.27
2018-05-07T07:07:16.030Z,48.47
2018-05-07T07:09:44.621Z,48.55
2018-05-07T07:12:12.997Z,48.45
2018-05-07T07:14:41.379Z,48.01
2018-05-07T07:17:09.782Z,47.95
2018-05-07T07:19:38.150Z,47.73
2018-05-07T07:22:06.279Z,47.50
2018-05-07T07:24:34.675Z,48.15
2018-05-07T07:27:03.040Z,47.25
2018-05-07T07:29:31.446Z,47.29
2018-05-07T07:32:00.037Z,46.79
2018-05-07T07:34:28.401Z,47.08
2018-05-07T07:36:56.804Z,46.80
2018-05-07T07:39:25.381Z,46.79
2018-05-07T07:41:53.914Z,47.43
2018-05-07T07:44:22.287Z,46.64
2018-05-07T07:46:50.675Z,46.51
2018-05-07T07:49:19.157Z,46.44
2018-05-07T07:51:47.959Z,45.39
2018-05-07T07:54:16.338Z,45.41
2018-05-07T07:56:44.741Z,46.01
2018-05-07T07:59:13.129Z,45.93
2018-05-07T08:01:41.645Z,46.33
2018-05-07T08:04:10.207Z,44.82
2018-05-07T08:06:38.526Z,42.94
2018-05-07T08:09:06.590Z,43.07
2018-05-07T08:11:34.958Z,44.46
2018-05-07T08:14:03.350Z,44.67
2018-05-07T08:16:31.718Z,44.31
2018-05-07T08:19:00.094Z,44.00
2018-05-07T08:21:28.484Z,42.25
2018-05-07T08:23:56.876Z,43.43
2018-05-07T08:26:25.249Z,43.06
2018-05-07T08:28:53.637Z,43.09
2018-05-07T08:31:22.074Z,42.92
2018-05-07T08:33:50.445Z,42.03
2018-05-07T08:36:18.823Z,42.27
2018-05-07T08:38:47.190Z,42.80
2018-05-07T08:41:15.592Z,42.89
2018-05-07T08:43:43.969Z,42.45
2018-05-07T08:46:12.347Z,42.49
2018-05-07T08:48:40.726Z,41.83
2018-05-07T08:51:09.160Z,41.93
2018-05-07T08:53:37.676Z,41.89
2018-05-07T08:56:06.035Z,42.27
2018-05-07T08:58:34.192Z,41.75
2018-05-07T09:01:02.608Z,41.77
2018-05-07T09:03:30.983Z,40.88
2018-05-07T09:05:59.387Z,41.55
2018-05-07T09:08:27.781Z,41.71
2018-05-07T09:10:56.149Z,41.19
2018-05-07T09:13:24.294Z,41.27
2018-05-07T09:15:52.705Z,41.67
2018-05-07T09:18:21.081Z,41.70
2018-05-07T09:20:49.465Z,40.96
2018-05-07T09:23:17.844Z,40.52
2018-05-07T09:25:46.222Z,40.13
2018-05-07T09:28:14.588Z,40.03
2018-05-07T09:30:42.964Z,40.25
2018-05-07T09:33:11.329Z,40.47
2018-05-07T09:35:39.796Z,39.88
2018-05-07T09:38:08.176Z,39.77
2018-05-07T09:40:36.597Z,39.39
2018-05-07T09:43:05.009Z,40.35
2018-05-07T09:45:33.558Z,40.08
2018-05-07T09:48:01.936Z,39.69
2018-05-07T09:50:30.336Z,39.64
2018-05-07T09:52:58.707Z,39.77
2018-05-07T09:55:27.131Z,39.11
2018-05-07T09:58:02.795Z,39.26
2018-05-07T10:00:37.405Z,39.51
2018-05-07T10:03:05.627Z,39.87
2018-05-07T10:05:33.796Z,39.61
2018-05-07T10:08:02.176Z,39.87
2018-05-07T10:10:30.304Z,39.47
2018-05-07T10:12:58.698Z,39.55
2018-05-07T10:15:27.084Z,39.76
2018-05-07T10:17:55.456Z,40.03
2018-05-07T10:20:23.877Z,39.89
2018-05-07T10:22:52.257Z,39.35
2018-05-07T10:25:20.629Z,39.47
2018-05-07T10:27:48.986Z,38.88
2018-05-07T10:30:17.393Z,38.04
2018-05-07T10:32:45.763Z,37.78
2018-05-07T10:35:14.169Z,37.38
2018-05-07T10:37:42.687Z,36.40
2018-05-07T10:40:11.061Z,36.91
2018-05-07T10:42:39.451Z,36.43
2018-05-07T10:45:07.999Z,36.62
2018-05-07T10:47:36.365Z,36.05
2018-05-07T10:50:04.870Z,35.76
2018-05-07T10:52:33.291Z,35.66
2018-05-07T10:55:01.673Z,35.88
2018-05-07T10:57:30.048Z,36.38
2018-05-07T10:59:58.455Z,36.51
2018-05-07T11:02:26.820Z,36.01
2018-05-07T11:04:55.189Z,35.84
2018-05-07T11:07:23.631Z,35.68
2018-05-07T11:09:52.130Z,35.32
2018-05-07T11:12:23.428Z,35.48
2018-05-07T11:14:52.056Z,36.78
2018-05-07T11:17:20.433Z,35.17
2018-05-07T11:19:48.870Z,35.53
2018-05-07T11:22:17.578Z,35.70
2018-05-07T11:24:45.958Z,35.95
2018-05-07T11:27:14.330Z,34.71
2018-05-07T11:29:42.703Z,34.91
2018-05-07T11:32:10.866Z,34.12
2018-05-07T11:34:39.244Z,34.04
2018-05-07T11:37:07.650Z,34.15
2018-05-07T11:39:36.040Z,33.86
2018-05-07T11:42:04.440Z,33.68
2018-05-07T11:44:32.816Z,34.07
2018-05-07T11:47:01.829Z,33.44
2018-05-07T11:49:30.201Z,33.60
2018-05-07T11:51:58.613Z,33.83
2018-05-07T11:54:26.988Z,33.05
2018-05-07T11:56:55.128Z,33.14
2018-05-07T11:59:23.504Z,33.18
2018-05-07T12:01:51.889Z,33.20
2018-05-07T12:04:20.265Z,33.30
2018-05-07T12:06:48.642Z,33.15
2018-05-07T12:09:17.021Z,32.84
2018-05-07T12:11:45.436Z,32.52
2018-05-07T12:14:13.828Z,32.45
2018-05-07T12:16:42.206Z,32.58
2018-05-07T12:19:10.640Z,32.98
2018-05-07T12:21:38.804Z,33.00
2018-05-07T12:24:07.192Z,33.95
2018-05-07T12:26:35.562Z,34.51
2018-05-07T12:29:03.942Z,33.72
2018-05-07T12:31:32.397Z,33.59
2018-05-07T12:34:00.945Z,32.39
2018-05-07T12:36:29.330Z,32.55
2018-05-07T12:38:57.764Z,32.35
2018-05-07T12:41:26.137Z,32.71
2018-05-07T12:43:54.531Z,31.83
2018-05-07T12:46:23.107Z,32.30
2018-05-07T12:48:51.526Z,31.54
2018-05-07T12:51:19.895Z,32.76
2018-05-07T12:53:48.260Z,32.89
2018-05-07T12:56:16.653Z,32.28
2018-05-07T12:58:45.009Z,32.52
2018-05-07T13:01:13.382Z,32.74
2018-05-07T13:03:41.773Z,32.10
2018-05-07T13:06:09.897Z,32.10
2018-05-07T13:08:38.285Z,31.02
2018-05-07T13:11:06.664Z,30.20
2018-05-07T13:13:35.045Z,29.17
2018-05-07T13:16:03.415Z,29.19
2018-05-07T13:18:31.794Z,29.48
2018-05-07T13:21:00.181Z,29.76
2018-05-07T13:23:28.554Z,29.56
2018-05-07T13:25:56.930Z,28.85
2018-05-07T13:28:25.321Z,28.89
2018-05-07T13:30:53.696Z,28.17
2018-05-07T13:33:21.828Z,28.00
2018-05-07T13:35:50.205Z,28.55
2018-05-07T13:38:18.637Z,27.33
2018-05-07T13:40:47.089Z,27.79
2018-05-07T13:43:15.179Z,28.47
2018-05-07T13:45:43.594Z,28.43
2018-05-07T13:48:11.985Z,27.25
2018-05-07T13:50:40.348Z,25.79
2018-05-07T13:53:08.723Z,26.06
2018-05-07T13:55:37.109Z,26.73
2018-05-07T13:58:05.482Z,26.39
2018-05-07T14:00:33.849Z,26.96
2018-05-07T14:03:02.258Z,26.79
2018-05-07T14:05:30.677Z,26.53
2018-05-07T14:07:59.069Z,26.48
2018-05-07T14:10:27.438Z,26.45
2018-05-07T14:12:55.816Z,26.86
2018-05-07T14:15:24.249Z,26.19
2018-05-07T14:17:52.632Z,25.68
2018-05-07T14:20:20.763Z,24.61
2018-05-07T14:22:49.157Z,23.32
2018-05-07T14:25:17.537Z,23.55
2018-05-07T14:27:45.925Z,23.33
2018-05-07T14:30:14.316Z,22.83
2018-05-07T14:32:42.701Z,22.74
2018-05-07T14:35:11.128Z,22.42
2018-05-07T14:37:39.510Z,22.59
2018-05-07T14:40:07.916Z,22.74
2018-05-07T14:42:36.061Z,22.54
2018-05-07T14:45:04.430Z,22.03
2018-05-07T14:47:32.986Z,22.49
2018-05-07T14:50:01.400Z,21.20
2018-05-07T14:52:29.777Z,21.00
2018-05-07T14:54:58.181Z,21.46
2018-05-07T14:57:26.614Z,21.51
2018-05-07T14:59:54.978Z,21.67
2018-05-07T15:02:23.370Z,21.89
2018-05-07T15:04:51.768Z,22.04
2018-05-07T15:07:20.220Z,22.64
2018-05-07T15:09:48.581Z,22.98
2018-05-07T15:12:16.978Z,23.50
2018-05-07T15:14:45.379Z,22.46
2018-05-07T15:17:13.745Z,22.53
2018-05-07T15:19:42.213Z,23.16
2018-05-07T15:22:10.608Z,23.24
2018-05-07T15:24:46.357Z,23.56
2018-05-07T15:27:14.704Z,24.46
2018-05-07T15:29:42.878Z,24.97
2018-05-07T15:32:11.269Z,24.95
2018-05-07T15:34:39.638Z,25.12
2018-05-07T15:37:08.006Z,25.79
2018-05-07T15:39:36.381Z,25.35
2018-05-07T15:42:04.756Z,25.52
2018-05-07T15:44:33.128Z,25.94
2018-05-07T15:47:01.609Z,26.54
2018-05-07T15:49:29.997Z,26.78
2018-05-07T15:51:58.128Z,26.33
2018-05-07T15:54:26.272Z,26.55
2018-05-07T15:56:54.653Z,26.86
2018-05-07T15:59:23.020Z,26.66
2018-05-07T16:01:51.733Z,26.25
2018-05-07T16:04:20.101Z,26.16
2018-05-07T16:06:48.482Z,25.83
2018-05-07T16:09:16.845Z,26.08
2018-05-07T16:11:45.237Z,25.98
2018-05-07T16:14:13.605Z,25.92
2018-05-07T16:16:41.757Z,25.77
2018-05-07T16:19:10.229Z,25.91
2018-05-07T16:21:38.601Z,25.75
2018-05-07T16:24:06.621Z,25.74
2018-05-07T16:26:35.066Z,26.15
2018-05-07T16:29:03.566Z,26.43
2018-05-07T16:31:31.952Z,25.48
2018-05-07T16:34:00.328Z,26.04
2018-05-07T16:36:28.728Z,26.02
2018-05-07T16:38:56.875Z,26.00
2018-05-07T16:41:25.486Z,26.04
2018-05-07T16:43:53.849Z,26.27
2018-05-07T16:46:22.241Z,25.62
2018-05-07T16:48:50.668Z,26.37
2018-05-07T16:51:19.205Z,26.62
2018-05-07T16:53:47.587Z,26.31
2018-05-07T16:56:15.970Z,26.15
2018-05-07T16:58:44.357Z,25.89
2018-05-07T17:01:12.736Z,25.96
2018-05-07T17:03:41.150Z,26.15
2018-05-07T17:06:09.530Z,25.99
2018-05-07T17:08:37.909Z,25.87
2018-05-07T17:11:06.288Z,25.96
2018-05-07T17:13:34.739Z,26.11
2018-05-07T17:16:03.130Z,26.39
2018-05-07T17:18:31.534Z,26.48
2018-05-07T17:20:59.913Z,26.65
2018-05-07T17:23:28.403Z,26.87
2018-05-07T17:25:56.774Z,26.80
2018-05-07T17:28:25.162Z,27.11
2018-05-07T17:30:53.536Z,27.00
2018-05-07T17:33:21.938Z,27.27
2018-05-07T17:35:49.977Z,27.54
2018-05-07T17:38:18.357Z,27.72
2018-05-07T17:40:46.737Z,27.75
2018-05-07T17:43:15.120Z,27.60
2018-05-07T17:46:04.155Z,27.75
2018-05-07T17:48:43.649Z,27.47
2018-05-07T17:51:12.094Z,27.72
2018-05-07T17:53:40.463Z,28.00
2018-05-07T17:56:08.847Z,28.05
2018-05-07T17:58:37.210Z,28.04
2018-05-07T18:01:05.586Z,28.30
2018-05-07T18:03:34.005Z,28.45
2018-05-07T18:06:02.399Z,28.34
2018-05-07T18:08:30.801Z,28.55
2018-05-07T18:10:59.173Z,28.75
2018-05-07T18:13:27.538Z,28.85
2018-05-07T18:15:55.933Z,28.80
2018-05-07T18:18:24.806Z,29.02
2018-05-07T18:20:53.184Z,29.16
2018-05-07T18:23:21.579Z,29.39
2018-05-07T18:25:49.953Z,29.48
2018-05-07T18:28:18.333Z,29.68
2018-05-07T18:30:46.701Z,29.87
2018-05-07T18:33:15.073Z,30.09
2018-05-07T18:35:43.457Z,30.10
2018-05-07T18:38:11.830Z,30.21
2018-05-07T18:40:40.209Z,30.45
2018-05-07T18:43:08.584Z,30.51
2018-05-07T18:45:36.961Z,30.49
2018-05-07T18:48:05.523Z,30.51
2018-05-07T18:50:33.880Z,30.73
2018-05-07T18:53:02.262Z,30.80
2018-05-07T18:55:30.636Z,30.88
2018-05-07T18:57:59.034Z,30.77
2018-05-07T19:00:27.509Z,30.93
2018-05-07T19:02:55.879Z,31.12
2018-05-07T19:05:24.259Z,31.23
2018-05-07T19:07:52.643Z,31.24
2018-05-07T19:10:21.036Z,31.40
2018-05-07T19:12:49.442Z,31.25
2018-05-07T19:15:17.829Z,31.49
2018-05-07T19:17:46.221Z,31.17
2018-05-07T19:20:14.277Z,31.37
2018-05-07T19:22:42.663Z,31.73
2018-05-07T19:25:11.606Z,31.66
2018-05-07T19:27:40.003Z,31.80
2018-05-07T19:30:10.769Z,31.69
2018-05-07T19:32:39.236Z,31.78
2018-05-07T19:35:10.045Z,31.89
2018-05-07T19:37:38.434Z,32.04
2018-05-07T19:40:07.576Z,31.95
2018-05-07T19:42:38.107Z,32.27
2018-05-07T19:45:07.082Z,32.44
2018-05-07T19:47:37.591Z,32.46
2018-05-07T19:50:08.760Z,32.42
2018-05-07T19:52:37.142Z,32.41
2018-05-07T19:55:06.118Z,32.35
2018-05-07T19:57:36.392Z,32.51
2018-05-07T20:00:04.402Z,32.28
2018-05-07T20:02:33.421Z,32.64
2018-05-07T20:05:01.807Z,32.50
2018-05-07T20:07:30.405Z,32.63
2018-05-07T20:09:58.544Z,32.71
2018-05-07T20:12:27.398Z,32.74
2018-05-07T20:14:55.990Z,32.92
2018-05-07T20:17:25.242Z,32.98
2018-05-07T20:19:54.325Z,33.00
2018-05-07T20:22:22.858Z,32.97
2018-05-07T20:24:51.267Z,33.03
2018-05-07T20:27:19.653Z,33.09
2018-05-07T20:29:48.038Z,33.00
2018-05-07T20:32:16.407Z,33.09
2018-05-07T20:34:44.785Z,33.40
2018-05-07T20:37:13.199Z,33.63
2018-05-07T20:39:41.570Z,33.80
2018-05-07T20:42:09.945Z,34.17
2018-05-07T20:44:38.317Z,34.50
2018-05-07T20:47:06.703Z,34.56
2018-05-07T20:49:35.286Z,34.80
2018-05-07T20:52:03.667Z,35.11
2018-05-07T20:54:32.072Z,35.75
2018-05-07T20:57:00.733Z,36.23
2018-05-07T20:59:29.178Z,36.67
2018-05-07T21:01:57.333Z,37.03
2018-05-07T21:04:25.698Z,37.38
2018-05-07T21:06:54.070Z,37.63
2018-05-07T21:09:22.565Z,38.09
2018-05-07T21:11:51.181Z,38.38
2018-05-07T21:14:19.567Z,38.50
2018-05-07T21:16:48.026Z,38.65
2018-05-07T21:19:16.464Z,38.84
2018-05-07T21:21:44.858Z,39.22
2018-05-07T21:24:13.235Z,39.35
2018-05-07T21:26:41.695Z,39.49
2018-05-07T21:29:10.189Z,39.74
2018-05-07T21:31:38.553Z,40.02
2018-05-07T21:34:06.926Z,39.91
2018-05-07T21:36:35.311Z,40.12
2018-05-07T21:39:03.203Z,40.25
2018-05-07T21:41:31.591Z,40.51
2018-05-07T21:44:00.001Z,40.57
2018-05-07T21:46:28.386Z,40.56
2018-05-07T21:48:56.761Z,40.81
2018-05-07T21:51:25.165Z,40.67
2018-05-07T21:53:53.563Z,41.04
2018-05-07T21:56:21.959Z,40.89
2018-05-07T21:58:50.353Z,41.24
2018-05-07T22:01:18.394Z,41.30
2018-05-07T22:03:46.789Z,41.58
2018-05-07T22:06:15.164Z,41.63
2018-05-07T22:08:43.569Z,41.87
2018-05-07T22:11:11.879Z,42.01
2018-05-07T22:13:39.701Z,42.07
2018-05-07T22:16:08.112Z,42.26
2018-05-07T22:18:36.509Z,42.39
2018-05-07T22:21:04.873Z,42.21
2018-05-07T22:23:33.242Z,42.56
2018-05-07T22:26:01.628Z,42.46
2018-05-07T22:28:30.064Z,42.50
2018-05-07T22:30:58.593Z,42.46
2018-05-07T22:33:26.971Z,42.34
2018-05-07T22:35:55.338Z,42.20
2018-05-07T22:38:23.722Z,42.31
2018-05-07T22:40:52.139Z,42.45
2018-05-07T22:43:20.516Z,42.32
2018-05-07T22:45:48.887Z,42.40
2018-05-07T22:48:17.262Z,42.36
2018-05-07T22:50:46.377Z,42.45
2018-05-07T22:53:15.045Z,42.58
2018-05-07T22:55:43.423Z,42.50
2018-05-07T22:58:11.817Z,42.51
2018-05-07T23:00:40.188Z,42.56
2018-05-07T23:03:08.573Z,42.59
2018-05-07T23:05:36.962Z,42.43
2018-05-07T23:08:05.345Z,42.52
2018-05-07T23:10:33.734Z,42.64
2018-05-07T23:13:02.104Z,42.93
2018-05-07T23:15:30.643Z,43.12
2018-05-07T23:17:59.780Z,43.09
2018-05-07T23:20:27.935Z,43.43
2018-05-07T23:22:57.052Z,43.53
2018-05-07T23:25:25.430Z,43.63
2018-05-07T23:27:53.801Z,43.95
2018-05-07T23:30:22.175Z,43.76
2018-05-07T23:32:50.577Z,43.98
2018-05-07T23:35:18.950Z,44.20
2018-05-07T23:37:47.324Z,43.90
2018-05-07T23:40:15.696Z,44.57
2018-05-07T23:42:44.440Z,44.37
2018-05-07T23:45:13.580Z,44.28
2018-05-07T23:47:41.966Z,44.90
2018-05-07T23:50:12.421Z,45.60
2018-05-07T23:52:40.790Z,45.78
2018-05-07T23:55:11.198Z,45.63
2018-05-07T23:57:39.725Z,46.90
